Time;durP1;ratioP1;P1;durP2;ratioP2;P2;SDS_P1;SDS_P2;PMS_P1;PMS_P2;Temp;Humidity;BMP_temperature;BMP_pressure;BME280_temperature;BME280_humidity;BME280_pressure;Samples;Min_cycle;Max_cycle;Signal;HPM_P1;HPM_P2
2021/08/12 00:01:16;;;;;;;4.63;3.55;;;16.70;91.80;;;;;;5031778;28;20362;-62
2021/08/12 00:03:42;;;;;;;3.60;3.00;;;16.70;91.90;;;;;;5031570;28;20497;-61
2021/08/12 00:06:07;;;;;;;5.38;3.80;;;16.70;92.00;;;;;;5031841;28;20038;-62
2021/08/12 00:08:33;;;;;;;4.05;3.35;;;16.60;92.00;;;;;;5031866;28;20029;-61
2021/08/12 00:10:58;;;;;;;5.05;4.13;;;16.60;92.10;;;;;;5031615;28;20075;-61
2021/08/12 00:13:24;;;;;;;5.75;4.10;;;16.60;92.20;;;;;;5031641;28;20014;-61
2021/08/12 00:15:50;;;;;;;5.40;4.63;;;16.60;92.30;;;;;;5034911;28;20286;-62
2021/08/12 00:18:16;;;;;;;6.22;4.88;;;16.60;92.30;;;;;;5034491;28;20017;-62
2021/08/12 00:20:41;;;;;;;7.97;4.75;;;16.50;92.40;;;;;;5033263;28;20358;-62
2021/08/12 00:23:07;;;;;;;5.18;4.45;;;16.50;92.50;;;;;;5034194;28;20037;-61
2021/08/12 00:25:33;;;;;;;6.35;4.55;;;16.50;92.60;;;;;;5032832;28;20053;-62
2021/08/12 00:27:58;;;;;;;6.03;4.97;;;16.50;92.60;;;;;;5035648;28;20053;-62
2021/08/12 00:30:24;;;;;;;6.50;5.60;;;16.40;92.70;;;;;;5035598;28;20473;-62
2021/08/12 00:32:50;;;;;;;5.80;3.80;;;16.40;92.80;;;;;;5035035;28;20028;-61
2021/08/12 00:35:15;;;;;;;5.43;4.78;;;16.40;92.90;;;;;;5035552;28;20029;-62
2021/08/12 00:37:41;;;;;;;5.50;4.57;;;16.30;92.90;;;;;;5035490;28;20477;-62
2021/08/12 00:40:07;;;;;;;4.55;4.03;;;16.30;93.00;;;;;;5034236;28;20033;-62
2021/08/12 00:42:33;;;;;;;6.18;4.72;;;16.30;93.00;;;;;;5032051;28;20373;-62
2021/08/12 00:44:59;;;;;;;6.97;4.78;;;16.30;93.10;;;;;;5034191;28;20025;-62
2021/08/12 00:47:24;;;;;;;6.20;4.78;;;16.20;93.10;;;;;;5034227;28;20029;-62
2021/08/12 00:49:50;;;;;;;5.80;5.18;;;16.20;93.20;;;;;;5033755;28;20117;-62
2021/08/12 00:52:16;;;;;;;6.13;4.85;;;16.20;93.30;;;;;;5034997;28;20017;-62
2021/08/12 00:54:42;;;;;;;5.43;4.63;;;16.20;93.30;;;;;;5033818;28;20143;-62
2021/08/12 00:57:09;;;;;;;5.30;4.70;;;16.10;93.40;;;;;;5034883;28;20033;-62
2021/08/12 00:59:39;;;;;;;5.88;4.93;;;16.10;93.40;;;;;;5035173;28;20473;-62
2021/08/12 01:02:08;;;;;;;5.80;4.28;;;16.10;93.50;;;;;;5034671;28;20026;-62
2021/08/12 01:04:34;;;;;;;4.05;3.40;;;16.00;93.60;;;;;;5032381;28;20021;-62
2021/08/12 01:07:08;;;;;;;5.63;4.00;;;16.00;93.70;;;;;;5035069;28;20022;-62
2021/08/12 01:10:07;;;;;;;5.80;4.22;;;15.90;93.80;;;;;;5032284;28;20044;-62
2021/08/12 01:12:46;;;;;;;5.53;4.23;;;15.90;93.90;;;;;;5034394;28;20077;-62
2021/08/12 01:15:15;;;;;;;;;;;15.90;94.10;;;;;;5035031;28;20029;-62
2021/08/12 01:17:47;;;;;;;4.75;2.42;;;15.80;94.00;;;;;;5034854;28;20258;-61
2021/08/12 01:20:39;;;;;;;2.67;2.10;;;15.80;94.20;;;;;;5034565;28;20033;-61
2021/08/12 01:23:12;;;;;;;2.42;1.85;;;15.80;94.20;;;;;;5033032;28;20044;-62
2021/08/12 01:25:40;;;;;;;4.30;2.63;;;15.70;94.40;;;;;;5033446;28;20126;-62
2021/08/12 01:28:18;;;;;;;3.97;3.25;;;15.70;94.50;;;;;;5034354;28;20043;-62
2021/08/12 01:31:16;;;;;;;2.33;1.98;;;15.70;94.50;;;;;;5033080;28;20029;-61
2021/08/12 01:33:51;;;;;;;1.70;1.35;;;15.70;94.50;;;;;;5032929;28;20021;-61
2021/08/12 01:36:20;;;;;;;3.25;2.30;;;15.70;94.60;;;;;;5034181;28;20029;-62
2021/08/12 01:38:49;;;;;;;3.33;2.40;;;15.70;94.70;;;;;;5033497;28;20034;-61
2021/08/12 01:41:15;;;;;;;3.75;2.67;;;15.70;94.70;;;;;;5034077;28;20045;-61
2021/08/12 01:43:41;;;;;;;3.90;2.75;;;15.70;94.80;;;;;;5034008;28;20029;-61
2021/08/12 01:46:08;;;;;;;2.72;2.05;;;15.70;94.80;;;;;;5034087;28;20032;-61
2021/08/12 01:48:34;;;;;;;3.78;2.65;;;15.70;94.90;;;;;;5031396;28;20033;-61
2021/08/12 01:50:59;;;;;;;3.72;2.30;;;15.70;95.00;;;;;;5034174;28;20017;-61
2021/08/12 01:53:26;;;;;;;4.68;2.83;;;15.70;95.00;;;;;;5034020;28;20025;-61
2021/08/12 01:55:53;;;;;;;4.47;2.70;;;15.70;95.10;;;;;;5033888;28;20032;-62
2021/08/12 01:58:22;;;;;;;2.95;2.50;;;15.70;95.20;;;;;;5033952;28;20036;-61
2021/08/12 02:00:48;;;;;;;4.75;3.42;;;15.70;95.20;;;;;;5032612;28;20075;-61
2021/08/12 02:03:16;;;;;;;5.18;3.72;;;15.70;95.30;;;;;;5033693;28;20022;-62
2021/08/12 02:05:47;;;;;;;4.97;4.20;;;15.70;95.30;;;;;;5033663;28;20480;-61
2021/08/12 02:08:13;;;;;;;5.25;4.60;;;15.70;95.30;;;;;;5032472;28;20432;-61
2021/08/12 02:10:40;;;;;;;4.85;3.75;;;15.70;95.40;;;;;;5033606;28;20017;-61
2021/08/12 02:13:07;;;;;;;5.00;3.90;;;15.70;95.50;;;;;;5033612;28;20087;-62
2021/08/12 02:15:32;;;;;;;6.38;3.80;;;15.60;95.50;;;;;;5033348;28;20544;-61
2021/08/12 02:17:58;;;;;;;5.45;4.55;;;15.60;95.60;;;;;;5032430;28;20109;-62
2021/08/12 02:20:23;;;;;;;7.32;5.00;;;15.60;95.60;;;;;;5033321;28;20076;-61
2021/08/12 02:22:54;;;;;;;6.40;5.00;;;15.60;95.60;;;;;;5033309;28;20389;-62
2021/08/12 02:25:33;;;;;;;6.25;5.18;;;15.70;95.70;;;;;;5033751;28;20022;-62
2021/08/12 02:28:04;;;;;;;6.70;5.70;;;15.70;95.70;;;;;;5031369;28;20492;-61
2021/08/12 02:30:34;;;;;;;7.47;5.60;;;15.70;95.70;;;;;;5032988;28;20046;-61
2021/08/12 02:32:59;;;;;;;7.38;5.60;;;15.60;95.70;;;;;;5033216;28;20014;-62
2021/08/12 02:35:25;;;;;;;12.60;8.57;;;15.60;95.80;;;;;;5033098;28;20032;-62
2021/08/12 02:37:53;;;;;;;9.75;7.75;;;15.40;96.10;;;;;;5032648;28;20032;-61
2021/08/12 02:40:20;;;;;;;9.55;7.60;;;15.40;96.30;;;;;;5031707;28;20095;-61
2021/08/12 02:42:46;;;;;;;7.72;6.32;;;15.40;96.50;;;;;;5033213;28;20496;-61
2021/08/12 02:45:12;;;;;;;7.78;6.28;;;15.40;96.50;;;;;;5032753;28;20025;-62
2021/08/12 02:47:39;;;;;;;8.18;6.57;;;15.40;96.50;;;;;;5031832;28;20029;-61
2021/08/12 02:50:07;;;;;;;7.05;5.90;;;15.40;96.50;;;;;;5033264;28;20028;-62
2021/08/12 02:52:34;;;;;;;8.85;4.93;;;15.50;96.50;;;;;;5032965;28;20142;-61
2021/08/12 02:55:01;;;;;;;5.88;5.25;;;15.40;96.50;;;;;;5033021;28;20030;-61
2021/08/12 02:57:26;;;;;;;7.63;6.30;;;15.40;96.50;;;;;;5031753;28;20036;-61
2021/08/12 02:59:52;;;;;;;7.10;5.82;;;15.40;96.50;;;;;;5031330;28;20428;-62
2021/08/12 03:02:20;;;;;;;7.10;5.75;;;15.40;96.50;;;;;;5028710;28;20465;-61
2021/08/12 03:04:46;;;;;;;8.25;6.45;;;15.50;96.50;;;;;;5032501;28;20028;-62
2021/08/12 03:07:13;;;;;;;7.25;6.25;;;15.50;96.50;;;;;;5032608;28;20104;-61
2021/08/12 03:09:41;;;;;;;8.98;6.60;;;15.50;96.50;;;;;;5032682;28;20014;-61
2021/08/12 03:12:08;;;;;;;7.95;6.07;;;15.50;96.50;;;;;;5032398;28;20024;-61
2021/08/12 03:14:35;;;;;;;8.00;6.28;;;15.50;96.50;;;;;;5032350;28;20052;-62
2021/08/12 03:17:02;;;;;;;11.02;6.90;;;15.50;96.50;;;;;;5032561;28;20025;-62
2021/08/12 03:19:27;;;;;;;8.00;6.15;;;15.50;96.50;;;;;;5032170;28;20078;-62
2021/08/12 03:21:59;;;;;;;8.93;7.13;;;15.50;96.50;;;;;;5032114;28;20112;-62
2021/08/12 03:24:26;;;;;;;8.27;6.55;;;15.40;96.80;;;;;;5030898;28;20363;-62
2021/08/12 03:26:54;;;;;;;8.38;6.30;;;15.40;96.70;;;;;;5044650;28;20024;-62
2021/08/12 03:29:20;;;;;;;7.80;6.28;;;15.30;96.80;;;;;;5032692;28;20026;-61
2021/08/12 03:31:45;;;;;;;8.32;6.40;;;15.30;97.10;;;;;;5031011;28;20534;-62
2021/08/12 03:34:11;;;;;;;8.85;6.60;;;15.30;96.90;;;;;;5031927;28;20025;-61
2021/08/12 03:36:36;;;;;;;7.82;6.32;;;15.30;96.90;;;;;;5032004;28;20025;-62
2021/08/12 03:39:02;;;;;;;7.80;6.65;;;15.30;97.00;;;;;;5032288;28;20100;-61
2021/08/12 03:41:27;;;;;;;8.05;6.38;;;15.30;97.00;;;;;;5030555;28;20409;-62
2021/08/12 03:43:53;;;;;;;9.95;6.63;;;15.30;97.00;;;;;;5032287;28;20021;-62
2021/08/12 03:46:18;;;;;;;7.53;6.20;;;15.30;97.00;;;;;;5032090;28;20034;-62
2021/08/12 03:48:44;;;;;;;7.85;6.20;;;15.30;97.00;;;;;;5031145;28;20024;-62
2021/08/12 03:51:10;;;;;;;8.77;6.60;;;15.30;97.10;;;;;;5031756;28;20038;-62
2021/08/12 03:53:35;;;;;;;8.93;6.63;;;15.30;97.10;;;;;;5031866;28;20025;-62
2021/08/12 03:56:01;;;;;;;9.02;6.63;;;15.20;97.10;;;;;;5031934;28;20355;-61
2021/08/12 03:58:26;;;;;;;7.75;6.60;;;15.20;97.20;;;;;;5031853;28;20045;-61
2021/08/12 04:00:55;;;;;;;8.15;6.72;;;15.20;97.20;;;;;;5031607;28;20034;-62
2021/08/12 04:03:20;;;;;;;8.20;6.63;;;15.20;97.30;;;;;;5031724;28;20021;-61
2021/08/12 04:05:46;;;;;;;7.07;6.10;;;15.20;97.30;;;;;;5031495;28;20524;-62
2021/08/12 04:08:12;;;;;;;9.00;6.72;;;15.20;97.20;;;;;;5031705;28;20108;-62
2021/08/12 04:10:38;;;;;;;8.07;6.60;;;15.20;97.20;;;;;;5031774;28;20068;-61
2021/08/12 04:13:03;;;;;;;8.43;6.95;;;15.20;97.10;;;;;;5030433;28;20021;-62
2021/08/12 04:15:29;;;;;;;8.55;7.30;;;15.20;97.00;;;;;;5030361;28;20148;-62
2021/08/12 04:17:55;;;;;;;7.85;6.63;;;15.20;97.00;;;;;;5031783;28;20028;-61
2021/08/12 04:20:20;;;;;;;8.02;6.65;;;15.20;97.00;;;;;;5031649;28;20362;-61
2021/08/12 04:22:46;;;;;;;10.00;7.55;;;15.20;97.00;;;;;;5031254;28;20053;-61
2021/08/12 04:25:12;;;;;;;7.18;6.25;;;15.20;97.10;;;;;;5030935;28;20037;-62
2021/08/12 04:27:38;;;;;;;8.10;6.60;;;15.20;97.10;;;;;;5031628;28;20013;-62
2021/08/12 04:30:06;;;;;;;8.68;6.75;;;15.10;97.40;;;;;;5031581;28;20021;-62
2021/08/12 04:32:31;;;;;;;7.78;6.20;;;15.10;97.20;;;;;;5031209;28;20030;-62
2021/08/12 04:34:57;;;;;;;8.02;6.20;;;15.10;97.20;;;;;;5031334;28;20544;-62
2021/08/12 04:37:22;;;;;;;9.60;6.80;;;15.00;97.20;;;;;;5030980;28;20135;-62
2021/08/12 04:39:48;;;;;;;7.65;6.43;;;15.10;97.30;;;;;;5030957;28;20053;-62
2021/08/12 04:42:13;;;;;;;7.80;6.15;;;15.00;97.30;;;;;;5030621;28;20022;-62
2021/08/12 04:44:39;;;;;;;7.38;5.22;;;15.00;97.30;;;;;;5031380;28;20465;-62
2021/08/12 04:47:05;;;;;;;6.15;4.85;;;15.00;97.40;;;;;;5031200;28;20029;-61
2021/08/12 04:49:30;;;;;;;4.53;4.00;;;15.00;97.50;;;;;;5031293;28;20026;-61
2021/08/12 04:51:55;;;;;;;4.78;3.50;;;15.00;97.50;;;;;;5030977;28;20029;-61
2021/08/12 04:54:21;;;;;;;4.20;3.67;;;15.00;97.60;;;;;;5031692;28;20028;-61
2021/08/12 04:56:46;;;;;;;5.35;3.42;;;15.00;97.70;;;;;;5031355;28;20558;-61
2021/08/12 04:59:12;;;;;;;7.45;5.05;;;15.00;97.70;;;;;;5031269;28;20024;-62
2021/08/12 05:01:37;;;;;;;7.25;5.75;;;15.00;97.80;;;;;;5032685;28;20018;-61
2021/08/12 05:04:03;;;;;;;9.95;6.68;;;14.90;97.80;;;;;;5034946;28;20072;-61
2021/08/12 05:06:29;;;;;;;8.35;6.47;;;15.00;97.80;;;;;;5034977;28;20060;-62
2021/08/12 05:08:54;;;;;;;8.48;7.43;;;15.00;97.80;;;;;;5034521;28;20384;-62
2021/08/12 05:11:20;;;;;;;10.57;8.13;;;15.00;97.80;;;;;;5035043;28;20036;-61
2021/08/12 05:13:47;;;;;;;9.30;7.85;;;15.00;97.90;;;;;;5034723;28;20039;-61
2021/08/12 05:16:12;;;;;;;11.77;7.90;;;15.00;98.00;;;;;;5028869;28;20022;-62
2021/08/12 05:18:38;;;;;;;11.20;8.38;;;15.00;98.00;;;;;;5028043;28;20428;-62
2021/08/12 05:21:03;;;;;;;10.27;8.93;;;15.00;98.10;;;;;;5035389;28;20385;-62
2021/08/12 05:23:44;;;;;;;10.95;8.80;;;15.00;98.10;;;;;;5035498;28;20075;-62
2021/08/12 05:26:10;;;;;;;9.50;7.88;;;15.00;98.20;;;;;;5035256;28;20021;-62
2021/08/12 05:28:35;;;;;;;13.05;8.98;;;15.00;98.30;;;;;;5035375;28;20013;-62
2021/08/12 05:31:03;;;;;;;9.82;8.38;;;15.00;98.30;;;;;;5035542;28;20025;-61
2021/08/12 05:33:29;;;;;;;9.80;7.93;;;15.00;98.30;;;;;;5034106;28;20075;-62
2021/08/12 05:35:54;;;;;;;10.50;8.70;;;15.00;98.40;;;;;;5035248;28;20025;-62
2021/08/12 05:38:20;;;;;;;11.23;9.15;;;15.00;98.40;;;;;;5035164;28;20455;-62
2021/08/12 05:41:06;;;;;;;10.48;8.75;;;15.10;98.50;;;;;;5034777;28;20053;-62
2021/08/12 05:43:31;;;;;;;10.15;8.93;;;15.20;98.60;;;;;;5035016;28;20392;-62
2021/08/12 05:45:57;;;;;;;12.38;9.23;;;15.20;98.70;;;;;;5035265;28;20517;-62
2021/08/12 05:48:22;;;;;;;11.68;9.23;;;15.10;98.70;;;;;;5034280;28;20040;-61
2021/08/12 05:50:48;;;;;;;11.43;9.38;;;15.20;98.80;;;;;;5032479;28;20073;-62
2021/08/12 05:53:20;;;;;;;13.40;10.05;;;15.20;98.80;;;;;;5034083;28;20025;-62
2021/08/12 05:55:46;;;;;;;12.75;11.20;;;15.30;98.90;;;;;;5033569;28;20057;-62
2021/08/12 05:58:12;;;;;;;15.10;12.45;;;15.30;99.10;;;;;;5033635;28;20044;-62
2021/08/12 06:00:38;;;;;;;15.68;11.90;;;15.30;99.20;;;;;;5033585;28;20021;-62
2021/08/12 06:03:11;;;;;;;15.48;13.43;;;15.30;99.30;;;;;;5034746;28;20026;-62
2021/08/12 06:05:38;;;;;;;16.67;13.38;;;15.40;99.60;;;;;;5034725;28;20108;-61
2021/08/12 06:08:05;;;;;;;15.95;13.25;;;15.40;99.80;;;;;;5034224;28;20084;-62
2021/08/12 06:10:32;;;;;;;15.40;12.45;;;15.50;99.90;;;;;;5034337;28;20034;-62
2021/08/12 06:12:59;;;;;;;13.48;11.68;;;15.50;99.90;;;;;;5033767;28;20021;-62
2021/08/12 06:15:26;;;;;;;13.95;12.07;;;15.50;99.90;;;;;;5034463;28;20029;-62
2021/08/12 06:17:52;;;;;;;12.43;10.90;;;15.60;99.90;;;;;;5034608;28;20381;-61
2021/08/12 06:20:18;;;;;;;14.00;11.63;;;15.70;99.90;;;;;;5033259;28;20388;-61
2021/08/12 06:22:44;;;;;;;13.77;11.40;;;15.80;99.90;;;;;;5034288;28;20477;-61
2021/08/12 06:28:11;;;;;;;13.70;11.05;;;15.90;99.70;;;;;;5034290;28;20029;-62
2021/08/12 06:30:37;;;;;;;15.70;12.02;;;15.90;99.80;;;;;;5034172;28;20090;-62
2021/08/12 06:33:04;;;;;;;16.48;13.15;;;16.00;99.80;;;;;;5034199;28;20381;-62
2021/08/12 06:35:34;;;;;;;12.13;10.63;;;16.10;99.80;;;;;;5034030;28;20029;-61
2021/08/12 06:38:00;;;;;;;21.13;13.38;;;16.10;99.70;;;;;;5034253;28;20389;-62
2021/08/12 06:40:26;;;;;;;16.05;13.73;;;16.20;99.70;;;;;;5033859;28;20373;-62
2021/08/12 06:42:52;;;;;;;18.30;15.18;;;16.30;99.70;;;;;;5034026;28;20026;-62
2021/08/12 06:45:21;;;;;;;17.52;14.55;;;16.40;99.70;;;;;;5033152;28;20073;-62
2021/08/12 06:47:48;;;;;;;20.25;16.88;;;16.40;99.70;;;;;;5033291;28;20017;-62
2021/08/12 06:50:15;;;;;;;20.33;16.27;;;16.50;99.90;;;;;;5033267;28;20105;-62
2021/08/12 06:52:41;;;;;;;22.33;18.33;;;16.60;99.90;;;;;;5033357;28;20029;-62
2021/08/12 06:55:07;;;;;;;19.15;15.93;;;16.70;99.90;;;;;;5033145;28;20400;-62
2021/08/12 06:57:33;;;;;;;22.88;18.27;;;16.70;99.90;;;;;;5033517;28;20029;-62
2021/08/12 06:59:59;;;;;;;19.40;16.67;;;16.80;99.90;;;;;;5033475;28;20444;-62
2021/08/12 07:02:24;;;;;;;19.38;16.92;;;16.90;99.90;;;;;;5032272;28;20381;-62
2021/08/12 07:04:50;;;;;;;22.60;16.85;;;17.00;99.90;;;;;;5029909;28;20105;-62
2021/08/12 07:07:15;;;;;;;20.77;17.38;;;17.00;99.90;;;;;;5030839;28;20080;-62
2021/08/12 07:09:42;;;;;;;15.88;13.45;;;17.10;99.90;;;;;;5033421;28;20018;-62
2021/08/12 07:12:08;;;;;;;18.33;16.42;;;17.20;99.90;;;;;;5030750;28;20049;-62
2021/08/12 07:14:34;;;;;;;18.55;15.40;;;17.30;99.90;;;;;;5032840;28;20040;-62
2021/08/12 07:16:59;;;;;;;17.05;14.77;;;17.40;99.70;;;;;;5032751;28;20100;-62
2021/08/12 07:19:25;;;;;;;18.00;16.10;;;17.40;99.50;;;;;;5033145;28;20557;-62
2021/08/12 07:21:51;;;;;;;17.30;15.43;;;17.50;99.40;;;;;;5033383;28;20385;-62
2021/08/12 07:24:18;;;;;;;16.65;13.50;;;17.70;99.30;;;;;;5031621;28;20136;-62
2021/08/12 07:26:46;;;;;;;18.13;13.07;;;17.70;99.10;;;;;;5031882;28;20021;-62
2021/08/12 07:29:12;;;;;;;16.95;12.05;;;17.80;98.80;;;;;;5032777;28;20022;-62
2021/08/12 07:31:38;;;;;;;14.77;11.80;;;17.90;98.60;;;;;;5031696;28;20497;-62
2021/08/12 07:37:00;;;;;;;14.25;11.30;;;18.10;98.20;;;;;;5032545;28;20013;-62
2021/08/12 07:39:26;;;;;;;12.68;9.88;;;18.20;98.00;;;;;;5031712;28;20025;-62
2021/08/12 07:41:51;;;;;;;12.02;8.88;;;18.30;97.80;;;;;;5031881;28;20041;-62
2021/08/12 07:44:17;;;;;;;10.07;8.60;;;18.40;97.60;;;;;;5032384;28;20030;-62
2021/08/12 07:46:42;;;;;;;11.68;8.95;;;18.50;97.40;;;;;;5032043;28;20515;-62
2021/08/12 07:49:08;;;;;;;11.23;8.27;;;18.60;97.10;;;;;;5032793;28;20471;-62
2021/08/12 07:51:33;;;;;;;13.65;10.32;;;18.70;96.90;;;;;;5030697;28;20026;-62
2021/08/12 07:53:59;;;;;;;12.48;9.63;;;18.90;96.30;;;;;;5023381;28;20022;-62
2021/08/12 07:56:40;;;;;;;8.80;7.13;;;18.90;95.90;;;;;;5032216;28;20105;-62
2021/08/12 07:59:06;;;;;;;10.48;7.97;;;19.00;95.50;;;;;;5032672;28;20056;-62
2021/08/12 08:01:31;;;;;;;9.23;7.22;;;19.10;95.30;;;;;;5032585;28;20421;-62
2021/08/12 08:03:59;;;;;;;9.55;7.88;;;19.20;95.00;;;;;;5032582;28;20113;-62
2021/08/12 08:06:25;;;;;;;8.23;6.45;;;19.30;94.60;;;;;;5032171;28;20017;-62
2021/08/12 08:08:50;;;;;;;8.70;6.93;;;19.40;94.30;;;;;;5031074;28;20025;-62
2021/08/12 08:11:17;;;;;;;7.55;6.75;;;19.50;94.00;;;;;;5030940;28;20021;-62
2021/08/12 08:13:43;;;;;;;9.65;7.00;;;19.60;93.70;;;;;;5029432;28;20404;-62
2021/08/12 08:16:08;;;;;;;9.25;6.47;;;19.70;93.50;;;;;;5032116;28;20028;-62
2021/08/12 08:18:34;;;;;;;7.32;6.18;;;19.70;93.30;;;;;;5028686;28;20448;-62
2021/08/12 08:20:59;;;;;;;9.15;7.95;;;19.80;93.10;;;;;;5031951;28;20104;-62
2021/08/12 08:23:25;;;;;;;7.72;6.60;;;19.90;92.00;;;;;;5020289;28;20481;-62
2021/08/12 08:25:50;;;;;;;7.18;6.07;;;20.00;92.00;;;;;;5032289;28;20112;-62
2021/08/12 08:28:16;;;;;;;8.18;5.43;;;20.20;92.00;;;;;;5031956;28;20035;-62
2021/08/12 08:30:42;;;;;;;8.07;5.07;;;20.20;91.90;;;;;;5031198;28;20026;-62
2021/08/12 08:33:08;;;;;;;8.77;7.32;;;20.30;91.80;;;;;;5032219;28;20029;-62
2021/08/12 08:35:34;;;;;;;7.00;5.90;;;20.40;90.80;;;;;;5031073;28;20103;-62
2021/08/12 08:38:00;;;;;;;7.32;6.20;;;20.50;90.50;;;;;;5034142;28;20025;-62
2021/08/12 08:40:26;;;;;;;6.53;5.18;;;20.60;90.00;;;;;;5036051;28;20408;-62
2021/08/12 08:42:52;;;;;;;8.45;5.22;;;20.60;89.90;;;;;;5035941;28;20041;-62
2021/08/12 08:45:23;;;;;;;6.35;4.72;;;20.70;89.30;;;;;;5034987;28;20025;-62
2021/08/12 08:47:56;;;;;;;5.05;4.18;;;20.80;89.30;;;;;;5035403;28;20489;-62
2021/08/12 08:50:25;;;;;;;6.82;4.20;;;20.90;89.00;;;;;;5034685;28;20057;-62
2021/08/12 08:52:52;;;;;;;5.85;4.40;;;20.90;89.20;;;;;;5036377;28;20032;-62
2021/08/12 08:55:22;;;;;;;5.88;4.88;;;21.00;88.40;;;;;;5035280;28;20026;-62
2021/08/12 08:58:05;;;;;;;5.55;4.50;;;21.10;87.50;;;;;;5035240;28;20068;-63
2021/08/12 09:00:31;;;;;;;8.70;5.57;;;21.20;87.10;;;;;;5035569;28;20049;-62
2021/08/12 09:02:57;;;;;;;6.75;5.18;;;21.30;85.30;;;;;;5035513;28;20029;-63
2021/08/12 09:05:42;;;;;;;8.18;6.18;;;21.40;85.80;;;;;;5035509;28;20072;-63
2021/08/12 09:08:08;;;;;;;5.30;4.28;;;21.50;85.90;;;;;;5034296;28;20022;-62
2021/08/12 09:11:09;;;;;;;6.07;4.82;;;21.60;85.80;;;;;;5033265;28;20032;-63
2021/08/12 09:13:33;;;;;;;5.68;4.22;;;21.60;85.70;;;;;;5010377;28;20026;-62
2021/08/12 09:16:00;;;;;;;6.88;5.20;;;21.70;85.30;;;;;;5033929;28;20117;-62
2021/08/12 09:18:34;;;;;;;5.93;4.30;;;21.80;84.50;;;;;;5035056;28;20075;-62
2021/08/12 09:21:19;;;;;;;8.43;5.00;;;21.90;84.00;;;;;;5034044;28;20104;-62
2021/08/12 09:23:55;;;;;;;5.95;4.50;;;22.00;83.10;;;;;;5035030;28;20370;-62
2021/08/12 09:26:22;;;;;;;6.90;4.80;;;22.10;83.30;;;;;;5035012;28;20028;-62
2021/08/12 09:28:48;;;;;;;6.60;5.25;;;22.20;83.30;;;;;;5035064;28;20021;-63
2021/08/12 09:31:13;;;;;;;10.05;7.75;;;22.30;83.10;;;;;;5034296;28;20034;-62
2021/08/12 09:33:39;;;;;;;8.80;7.25;;;22.40;82.30;;;;;;5034565;28;20022;-63
2021/08/12 09:36:21;;;;;;;8.85;5.50;;;22.40;81.60;;;;;;5034922;28;20025;-62
2021/08/12 09:39:08;;;;;;;11.25;6.07;;;22.50;81.50;;;;;;5034501;28;20021;-62
2021/08/12 09:41:51;;;;;;;6.50;5.38;;;22.60;80.90;;;;;;5034186;28;20065;-62
2021/08/12 09:44:28;;;;;;;6.57;4.97;;;22.70;80.50;;;;;;5033349;28;20103;-62
2021/08/12 09:46:58;;;;;;;8.35;4.70;;;22.70;80.60;;;;;;5033556;28;20259;-62
2021/08/12 09:49:24;;;;;;;5.65;3.70;;;22.90;79.90;;;;;;5033644;28;20393;-62
2021/08/12 09:51:50;;;;;;;5.70;3.58;;;23.00;79.60;;;;;;5034538;28;20331;-62
2021/08/12 09:54:28;;;;;;;7.60;5.00;;;23.00;78.20;;;;;;5034434;28;20108;-62
2021/08/12 09:57:28;;;;;;;5.07;3.87;;;23.10;77.60;;;;;;5034649;28;20057;-62
2021/08/12 09:59:54;;;;;;;6.90;3.83;;;23.20;77.80;;;;;;5032993;28;20395;-62
2021/08/12 10:02:20;;;;;;;4.95;3.75;;;23.30;77.10;;;;;;5034916;28;20079;-62
2021/08/12 10:05:00;;;;;;;5.68;3.80;;;23.40;76.80;;;;;;5034434;28;20026;-62
2021/08/12 10:07:44;;;;;;;6.03;4.28;;;23.40;75.70;;;;;;5034659;28;20017;-62
2021/08/12 10:10:43;;;;;;;4.43;3.40;;;23.50;75.60;;;;;;5034570;28;20053;-62
2021/08/12 10:13:09;;;;;;;4.22;3.35;;;23.60;76.00;;;;;;5024968;28;20080;-62
2021/08/12 10:15:34;;;;;;;4.32;3.17;;;23.70;75.30;;;;;;5033670;28;20377;-62
2021/08/12 10:18:02;;;;;;;4.43;3.25;;;23.80;74.60;;;;;;5032645;28;20108;-62
2021/08/12 10:20:34;;;;;;;4.63;3.20;;;23.90;74.20;;;;;;5032862;28;20064;-62
2021/08/12 10:23:05;;;;;;;4.45;3.08;;;24.00;74.50;;;;;;5034035;28;20029;-62
2021/08/12 10:25:30;;;;;;;5.45;3.80;;;24.20;74.30;;;;;;5034062;28;20017;-62
2021/08/12 10:28:10;;;;;;;;;;;;;;;;;;;;;
2021/08/12 10:31:00;;;;;;;3.75;3.25;;;24.30;74.00;;;;;;5029196;28;20473;-62
2021/08/12 10:33:26;;;;;;;4.72;3.83;;;24.50;73.80;;;;;;5007870;28;20045;-62
2021/08/12 10:35:52;;;;;;;4.88;3.55;;;24.50;73.10;;;;;;5017664;28;20500;-62
2021/08/12 10:38:38;;;;;;;4.40;3.75;;;24.60;72.90;;;;;;5033757;28;20072;-62
2021/08/12 10:41:04;;;;;;;4.82;3.63;;;24.80;72.80;;;;;;5048514;28;20064;-62
2021/08/12 10:43:30;;;;;;;6.60;5.30;;;24.80;72.70;;;;;;5033724;28;20068;-62
2021/08/12 10:45:58;;;;;;;6.10;5.35;;;24.90;71.50;;;;;;5019215;28;20720;-62
2021/08/12 10:48:24;;;;;;;5.50;3.63;;;24.90;71.90;;;;;;5003135;28;20497;-62
2021/08/12 10:51:11;;;;;;;5.15;4.35;;;25.00;72.30;;;;;;5017892;28;20033;-62
2021/08/12 10:53:42;;;;;;;6.03;3.70;;;25.20;71.50;;;;;;5031105;28;20029;-62
2021/08/12 10:56:15;;;;;;;5.47;4.47;;;25.30;71.60;;;;;;5033591;28;20416;-62
2021/08/12 10:58:43;;;;;;;6.78;4.93;;;25.50;71.00;;;;;;5032171;28;20021;-62
2021/08/12 11:01:11;;;;;;;5.18;4.05;;;25.50;69.40;;;;;;5033197;28;20029;-62
2021/08/12 11:03:43;;;;;;;6.22;5.07;;;25.60;69.30;;;;;;5032512;28;20071;-63
2021/08/12 11:06:20;;;;;;;4.95;3.78;;;25.70;69.40;;;;;;5031174;28;20017;-62
2021/08/12 11:09:02;;;;;;;5.85;5.00;;;25.70;69.50;;;;;;5031888;28;20017;-62
2021/08/12 11:11:28;;;;;;;9.18;3.83;;;25.80;68.40;;;;;;5032990;28;20032;-63
2021/08/12 11:13:58;;;;;;;3.97;3.42;;;25.90;68.50;;;;;;5031063;28;20013;-62
2021/08/12 11:16:26;;;;;;;4.03;3.28;;;26.20;69.00;;;;;;5031374;28;20025;-62
2021/08/12 11:18:57;;;;;;;4.97;3.78;;;26.50;67.60;;;;;;5030524;28;20121;-63
2021/08/12 11:21:32;;;;;;;3.65;2.92;;;26.60;67.20;;;;;;5032605;28;20025;-62
2021/08/12 11:24:23;;;;;;;4.38;3.00;;;26.90;67.70;;;;;;5032893;28;20017;-63
2021/08/12 11:26:48;;;;;;;2.95;2.50;;;27.20;67.50;;;;;;5032644;28;20022;-62
2021/08/12 11:29:23;;;;;;;2.70;2.47;;;27.30;67.00;;;;;;5032438;28;20029;-63
2021/08/12 11:31:48;;;;;;;2.90;2.60;;;27.60;66.70;;;;;;5032439;28;20021;-63
2021/08/12 11:34:52;;;;;;;4.40;2.72;;;27.80;66.40;;;;;;5032595;28;20021;-63
2021/08/12 11:37:19;;;;;;;4.00;2.95;;;28.00;65.60;;;;;;5031676;28;20052;-63
2021/08/12 11:39:51;;;;;;;3.45;2.40;;;28.20;65.10;;;;;;5032080;28;20029;-62
2021/08/12 11:42:54;;;;;;;3.75;2.85;;;28.40;63.90;;;;;;5032431;28;20044;-63
2021/08/12 11:45:25;;;;;;;3.20;2.78;;;28.60;62.90;;;;;;5031593;28;20045;-62
2021/08/12 11:47:55;;;;;;;4.57;3.10;;;28.40;61.60;;;;;;5032181;28;20490;-63
2021/08/12 11:50:26;;;;;;;4.13;3.20;;;28.40;61.00;;;;;;5031952;28;20489;-63
2021/08/12 11:52:51;;;;;;;5.78;3.28;;;28.30;60.60;;;;;;5031012;28;20501;-63
2021/08/12 11:55:19;;;;;;;3.85;2.75;;;28.30;60.50;;;;;;5032101;28;20032;-63
2021/08/12 11:57:50;;;;;;;3.53;3.00;;;28.30;61.10;;;;;;5032536;28;20101;-62
2021/08/12 12:00:28;;;;;;;4.93;3.25;;;28.60;61.40;;;;;;5032610;28;20027;-62
2021/08/12 12:02:55;;;;;;;4.43;2.92;;;28.80;59.70;;;;;;5032451;28;20028;-62
2021/08/12 12:05:25;;;;;;;3.92;2.78;;;28.90;59.80;;;;;;5032575;28;20032;-62
2021/08/12 12:07:54;;;;;;;3.85;3.00;;;29.20;60.00;;;;;;5032643;28;20420;-62
2021/08/12 12:10:26;;;;;;;3.20;2.70;;;29.50;58.90;;;;;;5018571;28;20025;-62
2021/08/12 12:12:53;;;;;;;2.97;2.53;;;29.50;58.10;;;;;;5030665;28;20400;-63
2021/08/12 12:15:33;;;;;;;2.78;2.30;;;29.80;58.20;;;;;;5032420;28;20029;-62
2021/08/12 12:17:59;;;;;;;4.05;2.67;;;30.20;57.90;;;;;;5032370;28;20032;-63
2021/08/12 12:20:26;;;;;;;3.60;3.10;;;30.30;57.20;;;;;;5030271;28;20451;-63
2021/08/12 12:23:01;;;;;;;3.42;3.00;;;30.20;56.10;;;;;;5002529;28;20056;-64
2021/08/12 12:25:35;;;;;;;4.45;2.80;;;30.10;56.80;;;;;;5015383;28;20033;-64
2021/08/12 12:28:02;;;;;;;4.00;3.08;;;30.20;57.10;;;;;;5031256;28;20036;-63
2021/08/12 12:30:30;;;;;;;3.97;3.30;;;30.10;56.30;;;;;;5031965;28;20029;-62
2021/08/12 12:33:01;;;;;;;4.82;3.72;;;29.50;56.90;;;;;;5031523;28;20052;-61
2021/08/12 12:35:28;;;;;;;3.92;3.08;;;29.10;57.50;;;;;;5030333;28;20037;-62
2021/08/12 12:37:54;;;;;;;2.70;2.28;;;28.70;58.50;;;;;;5000643;28;20602;-62
2021/08/12 12:40:21;;;;;;;3.45;2.80;;;28.90;59.40;;;;;;5003625;28;21197;-63
2021/08/12 12:42:50;;;;;;;3.50;2.72;;;29.10;58.20;;;;;;5029196;28;20084;-62
2021/08/12 12:45:16;;;;;;;8.82;3.58;;;29.10;57.70;;;;;;5031871;28;20157;-62
2021/08/12 12:47:41;;;;;;;3.22;2.67;;;28.90;58.00;;;;;;5030970;28;20496;-62
2021/08/12 12:50:07;;;;;;;4.35;3.10;;;28.80;58.40;;;;;;5031404;28;20060;-62
2021/08/12 12:52:33;;;;;;;4.93;2.92;;;28.60;58.50;;;;;;5030231;28;20009;-62
2021/08/12 12:54:58;;;;;;;5.18;3.50;;;28.60;58.90;;;;;;5031609;28;20029;-62
2021/08/12 12:57:31;;;;;;;6.03;3.78;;;28.40;59.20;;;;;;5031801;28;20044;-62
2021/08/12 12:59:57;;;;;;;5.05;3.40;;;28.40;58.80;;;;;;5031574;28;20017;-62